Portada
METAR-TAF:

METAR-TAF

Aeroports :

Phitsanulok, Tailàndia

latitud: 16-46-23N, longitud: 100-16-56E, altitud: 47 m

Observació

L'informe es va fer fa 1 hora i 9 minuts, a les 13:00 UTC
Vent 2 kt amb direcció variable
Temperatura 33°C
Humitat 41%
Pressió 1005 hPa
Visibilitat: 5000 m
fum

METAR: VTPP 071300Z VRB02KT 5000 FU NSC 33/18 Q1005 NOSIG

Hora: 21:09 (14:09 UTC)

Pronòstic

L'informe es va fer fa 3 hores i 9 minuts, a les 11:00 UTC
Pronòstic vàlid del 07 a les 12 UTC al 08 a les 12 UTC
Vent 6 kt del Sud
Visibilitat: 6000 m
Escasses núvols a una alçada de 3000 ft

TAF: VTPP 071100Z 0712/0812 17006KT 6000 FEW030

Observacions i pronòstics meteorològics de més de 4000 aeroports (METAR i TAF).

Les estacions disponibles són els punts grocs i vermells al mapa.

Posi el ratolí al punt desitjat per veure el nom de l'estació.

Feu clic per veure les observacions i els pronòstics meteorològics.

Per canviar el mapa: feu clic els botons verds amb una creu de color negre per apropar; al botó verd amb un guió per allunyar la imatge; o en les fletxes verdes per a mapes adjacents.


METAR-TAF: